Time;durP1;ratioP1;P1;durP2;ratioP2;P2;SDS_P1;SDS_P2;PMS_P1;PMS_P2;Temp;Humidity;BMP_temperature;BMP_pressure;BME280_temperature;BME280_humidity;BME280_pressure;Samples;Min_cycle;Max_cycle;Signal;HPM_P1;HPM_P2
2022/03/03 00:00:33;;;;;;;9.83;6.40;;;15.70;88.40;;;;;;2020670;28;20233;-76
2022/03/03 00:01:31;;;;;;;9.70;6.73;;;15.70;88.30;;;;;;2020510;28;20254;-76
2022/03/03 00:02:30;;;;;;;9.60;5.60;;;15.70;89.30;;;;;;2020516;28;20199;-78
2022/03/03 00:03:29;;;;;;;8.13;5.97;;;15.70;88.60;;;;;;2020316;28;20230;-77
2022/03/03 00:04:28;;;;;;;9.00;6.13;;;15.70;88.40;;;;;;2019690;28;20180;-77
2022/03/03 00:05:26;;;;;;;9.33;6.03;;;15.70;88.30;;;;;;2019896;28;20593;-77
2022/03/03 00:06:25;;;;;;;11.03;6.67;;;15.70;88.40;;;;;;2020296;28;20387;-77
2022/03/03 00:07:23;;;;;;;11.00;6.43;;;15.70;88.40;;;;;;2019924;28;20581;-77
2022/03/03 00:08:22;;;;;;;10.50;5.40;;;15.70;88.40;;;;;;2019926;28;20654;-77
2022/03/03 00:09:21;;;;;;;11.37;6.13;;;15.70;88.50;;;;;;2020311;28;20541;-77
2022/03/03 00:10:19;;;;;;;14.47;6.83;;;15.70;88.40;;;;;;2020310;28;20168;-77
2022/03/03 00:11:18;;;;;;;10.27;6.47;;;15.70;88.40;;;;;;2020349;28;20175;-77
2022/03/03 00:12:16;;;;;;;15.13;6.70;;;15.70;88.40;;;;;;2020495;28;20503;-77
2022/03/03 00:13:15;;;;;;;10.73;6.70;;;15.70;88.40;;;;;;2020385;28;20199;-77
2022/03/03 00:14:13;;;;;;;8.30;5.97;;;15.70;88.60;;;;;;2019856;28;20234;-77
2022/03/03 00:15:12;;;;;;;10.70;6.30;;;15.70;88.70;;;;;;2019946;28;20563;-77
2022/03/03 00:16:11;;;;;;;9.67;5.70;;;15.60;88.90;;;;;;2019983;28;20247;-77
2022/03/03 00:17:09;;;;;;;9.10;4.97;;;15.70;89.10;;;;;;2019968;28;20179;-77
2022/03/03 00:18:08;;;;;;;10.20;5.80;;;15.70;89.00;;;;;;2020457;28;20175;-75
2022/03/03 00:19:06;;;;;;;9.60;6.17;;;15.70;89.20;;;;;;2020516;28;20176;-78
2022/03/03 00:20:05;;;;;;;12.53;6.57;;;15.70;89.20;;;;;;2020491;28;20175;-77
2022/03/03 00:21:04;;;;;;;10.73;7.13;;;15.70;89.40;;;;;;2020217;28;20179;-77
2022/03/03 00:22:03;;;;;;;10.50;5.53;;;15.70;89.30;;;;;;2020200;28;20203;-77
2022/03/03 00:23:02;;;;;;;10.33;5.63;;;15.70;89.50;;;;;;2020299;28;20199;-76
2022/03/03 00:24:00;;;;;;;11.77;6.27;;;15.70;89.50;;;;;;2021812;28;20463;-77
2022/03/03 00:24:59;;;;;;;9.80;5.83;;;15.70;89.80;;;;;;2021958;28;20163;-77
2022/03/03 00:25:59;;;;;;;9.87;5.93;;;15.70;89.70;;;;;;2021334;28;20180;-77
2022/03/03 00:26:57;;;;;;;12.70;6.28;;;15.70;90.30;;;;;;2021411;28;20619;-77
2022/03/03 00:27:56;;;;;;;12.30;6.70;;;15.70;90.10;;;;;;2021919;28;20545;-77
2022/03/03 00:28:54;;;;;;;9.10;6.17;;;15.70;90.00;;;;;;2022038;28;20511;-76
2022/03/03 00:29:53;;;;;;;9.10;5.60;;;15.70;89.50;;;;;;2021839;28;20175;-77
2022/03/03 00:30:51;;;;;;;9.60;5.60;;;15.70;90.00;;;;;;2021907;28;20254;-77
2022/03/03 00:31:50;;;;;;;8.87;5.93;;;15.70;89.70;;;;;;2021879;28;20532;-77
2022/03/03 00:32:49;;;;;;;8.53;6.20;;;15.70;90.10;;;;;;2021646;28;20278;-77
2022/03/03 00:33:47;;;;;;;8.10;5.40;;;15.70;90.10;;;;;;2021019;28;20199;-77
2022/03/03 00:34:46;;;;;;;7.37;5.20;;;15.70;90.10;;;;;;2021323;28;20595;-76
2022/03/03 00:35:44;;;;;;;10.80;6.20;;;15.70;90.00;;;;;;2021909;28;20164;-76
2022/03/03 00:36:43;;;;;;;8.83;6.00;;;15.70;90.20;;;;;;2021827;28;20175;-76
2022/03/03 00:37:42;;;;;;;11.07;6.57;;;15.70;90.00;;;;;;2021117;28;20894;-77
2022/03/03 00:38:40;;;;;;;8.13;5.43;;;15.70;90.00;;;;;;2013071;28;20407;-77
2022/03/03 00:39:39;;;;;;;7.77;4.80;;;15.70;89.70;;;;;;2020596;28;20694;-77
2022/03/03 00:40:38;;;;;;;11.07;6.70;;;15.70;90.00;;;;;;2021808;28;20175;-77
2022/03/03 00:41:36;;;;;;;8.77;6.20;;;15.80;89.80;;;;;;2021746;28;20532;-76
2022/03/03 00:42:35;;;;;;;8.53;5.80;;;15.80;89.90;;;;;;2020765;28;20470;-76
2022/03/03 00:43:34;;;;;;;11.90;5.73;;;15.80;89.90;;;;;;2021106;28;20188;-77
2022/03/03 00:44:32;;;;;;;7.87;5.33;;;15.70;89.60;;;;;;2021617;28;20680;-76
2022/03/03 00:45:31;;;;;;;11.27;6.13;;;15.70;89.50;;;;;;2021466;28;20223;-76
2022/03/03 00:46:29;;;;;;;10.10;6.17;;;15.70;89.20;;;;;;2021678;28;20595;-76
2022/03/03 00:47:28;;;;;;;8.97;6.00;;;15.70;89.50;;;;;;2021671;28;20179;-76
2022/03/03 00:48:26;;;;;;;11.40;7.27;;;15.70;89.70;;;;;;2021816;28;20172;-76
2022/03/03 00:49:25;;;;;;;8.50;6.10;;;15.70;89.80;;;;;;2021647;28;20195;-76
2022/03/03 00:50:23;;;;;;;8.80;5.50;;;15.70;89.70;;;;;;2021579;28;20180;-76
2022/03/03 00:51:22;;;;;;;10.00;6.30;;;15.70;90.00;;;;;;2021655;28;20164;-77
2022/03/03 00:52:21;;;;;;;8.00;5.90;;;15.70;90.00;;;;;;2021651;28;20506;-76
2022/03/03 00:53:19;;;;;;;12.43;5.60;;;15.70;90.00;;;;;;2021516;28;20196;-76
2022/03/03 00:54:18;;;;;;;10.10;6.80;;;15.60;90.00;;;;;;2021789;28;20211;-76
2022/03/03 00:55:16;;;;;;;9.20;5.43;;;15.60;90.10;;;;;;2021782;28;20619;-76
2022/03/03 00:56:15;;;;;;;10.90;5.63;;;15.60;90.00;;;;;;2021562;28;20184;-75
2022/03/03 00:57:14;;;;;;;12.33;6.30;;;15.60;90.10;;;;;;2021868;28;20219;-76
2022/03/03 00:58:12;;;;;;;10.00;6.83;;;15.60;90.20;;;;;;2021581;28;20450;-76
2022/03/03 00:59:11;;;;;;;11.83;6.60;;;15.60;90.20;;;;;;2021715;28;20186;-76
2022/03/03 01:00:10;;;;;;;9.13;6.10;;;15.60;90.10;;;;;;2021589;28;20182;-77
2022/03/03 01:01:09;;;;;;;11.93;6.25;;;15.60;90.40;;;;;;2021593;28;20270;-76
2022/03/03 01:02:07;;;;;;;9.57;6.13;;;15.60;90.30;;;;;;2021658;28;20179;-76
2022/03/03 01:03:06;;;;;;;8.90;6.17;;;15.60;90.20;;;;;;2021788;28;20194;-76
2022/03/03 01:04:05;;;;;;;11.27;6.40;;;15.60;90.50;;;;;;2021546;28;20213;-76
2022/03/03 01:05:24;;;;;;;10.40;6.23;;;15.70;90.50;;;;;;2021785;28;20171;-76
2022/03/03 01:06:22;;;;;;;9.10;5.70;;;15.70;90.60;;;;;;2012619;28;20661;-76
2022/03/03 01:07:21;;;;;;;11.60;6.43;;;15.60;90.60;;;;;;2012794;28;20198;-77
2022/03/03 01:08:20;;;;;;;8.40;5.50;;;15.60;90.60;;;;;;2020098;28;20183;-77
2022/03/03 01:09:19;;;;;;;9.50;6.10;;;15.60;90.60;;;;;;2012887;28;20504;-77
2022/03/03 01:10:17;;;;;;;9.07;5.93;;;15.60;90.60;;;;;;2012855;28;20864;-76
2022/03/03 01:11:16;;;;;;;8.40;5.50;;;15.60;90.60;;;;;;2020538;28;20206;-76
2022/03/03 01:12:14;;;;;;;8.80;6.37;;;15.50;90.80;;;;;;2020839;28;20586;-77
2022/03/03 01:13:13;;;;;;;9.50;6.10;;;15.50;90.60;;;;;;2012671;28;20207;-76
2022/03/03 01:14:11;;;;;;;7.27;5.10;;;15.60;91.00;;;;;;2012645;28;20176;-76
2022/03/03 01:15:10;;;;;;;9.13;6.47;;;15.60;90.80;;;;;;2020414;28;20527;-76
2022/03/03 01:16:09;;;;;;;12.27;6.37;;;15.60;90.90;;;;;;2020867;28;20586;-76
2022/03/03 01:17:07;;;;;;;7.60;5.63;;;15.60;90.90;;;;;;2020748;28;20420;-76
2022/03/03 01:18:06;;;;;;;7.77;5.53;;;15.60;90.70;;;;;;2020798;28;20306;-76
2022/03/03 01:19:05;;;;;;;9.50;6.33;;;15.60;90.60;;;;;;2012730;28;20206;-77
2022/03/03 01:20:06;;;;;;;8.57;5.85;;;15.60;90.50;;;;;;2012549;28;20230;-76
2022/03/03 01:21:05;;;;;;;9.65;6.03;;;15.60;90.60;;;;;;2020324;28;20238;-76
2022/03/03 01:22:03;;;;;;;12.50;6.67;;;15.60;90.60;;;;;;2012527;28;20192;-77
2022/03/03 01:23:02;;;;;;;9.37;6.13;;;15.50;90.50;;;;;;2013340;28;20655;-76
2022/03/03 01:24:01;;;;;;;9.27;6.13;;;15.60;90.70;;;;;;2020757;28;20180;-76
2022/03/03 01:25:00;;;;;;;10.63;6.30;;;15.60;90.70;;;;;;2020786;28;20414;-76
2022/03/03 01:25:59;;;;;;;10.23;6.87;;;15.50;90.80;;;;;;2023567;28;20168;-77
2022/03/03 01:26:59;;;;;;;9.90;6.47;;;15.50;90.70;;;;;;2012787;28;20255;-77
2022/03/03 01:27:57;;;;;;;9.43;5.38;;;15.50;90.70;;;;;;2012596;28;20169;-76
2022/03/03 01:28:56;;;;;;;8.57;6.13;;;15.50;90.60;;;;;;2012555;28;20215;-77
2022/03/03 01:29:54;;;;;;;10.43;6.47;;;15.50;90.50;;;;;;2012437;28;20200;-77
2022/03/03 01:30:53;;;;;;;8.00;5.07;;;15.50;90.70;;;;;;2020086;28;20178;-77
2022/03/03 01:31:52;;;;;;;9.67;5.93;;;15.60;90.60;;;;;;2020406;28;20231;-77
2022/03/03 01:32:50;;;;;;;10.67;6.50;;;15.50;90.40;;;;;;2020297;28;20619;-77
2022/03/03 01:33:49;;;;;;;9.20;5.77;;;15.50;90.40;;;;;;2012332;28;20415;-77
2022/03/03 01:34:48;;;;;;;12.60;6.50;;;15.50;90.40;;;;;;2012443;28;20244;-77
2022/03/03 01:35:46;;;;;;;9.77;6.00;;;15.50;90.30;;;;;;2020044;28;20171;-77
2022/03/03 01:36:45;;;;;;;10.10;5.87;;;15.50;90.20;;;;;;2020553;28;20178;-77
2022/03/03 01:37:44;;;;;;;10.27;6.00;;;15.50;90.20;;;;;;2020516;28;20602;-77
2022/03/03 01:38:42;;;;;;;7.83;5.20;;;15.50;90.00;;;;;;2021282;28;20172;-77
2022/03/03 01:39:41;;;;;;;6.07;5.23;;;15.40;90.00;;;;;;2021287;28;20194;-77
2022/03/03 01:40:39;;;;;;;10.50;6.17;;;15.50;90.20;;;;;;2021333;28;20241;-77
2022/03/03 01:41:41;;;;;;;8.10;5.93;;;15.50;90.10;;;;;;2021180;28;20175;-77
2022/03/03 01:42:40;;;;;;;13.48;6.10;;;15.50;90.00;;;;;;2020986;28;20218;-77
2022/03/03 01:43:39;;;;;;;7.40;5.10;;;15.50;89.80;;;;;;2021271;28;20175;-77
2022/03/03 01:44:42;;;;;;;8.60;5.27;;;15.50;89.70;;;;;;2021133;28;20180;-77
2022/03/03 01:45:40;;;;;;;7.95;5.20;;;15.60;89.80;;;;;;2021288;28;20171;-77
2022/03/03 01:46:56;;;;;;;11.20;7.20;;;15.50;89.50;;;;;;2021073;28;20171;-77
2022/03/03 01:47:55;;;;;;;11.30;5.97;;;15.50;89.60;;;;;;2021390;28;20163;-78
2022/03/03 01:48:55;;;;;;;8.17;6.17;;;15.50;89.10;;;;;;2021161;28;20652;-77
2022/03/03 01:49:56;;;;;;;11.07;6.25;;;15.40;89.40;;;;;;2021264;28;20206;-77
2022/03/03 01:50:54;;;;;;;9.00;6.00;;;15.50;89.60;;;;;;2021155;28;20256;-77
2022/03/03 01:51:53;;;;;;;8.70;5.70;;;15.50;89.50;;;;;;2021120;28;20168;-77
2022/03/03 01:52:51;;;;;;;11.57;6.17;;;15.50;89.50;;;;;;2021076;28;20468;-77
2022/03/03 01:53:50;;;;;;;7.20;5.30;;;15.50;89.00;;;;;;2021176;28;20172;-77
2022/03/03 01:54:49;;;;;;;7.47;5.67;;;15.50;89.30;;;;;;2021152;28;20175;-77
2022/03/03 01:55:50;;;;;;;7.50;5.30;;;15.40;89.30;;;;;;2020378;28;20179;-77
2022/03/03 01:56:49;;;;;;;8.63;6.18;;;15.50;89.40;;;;;;2012379;28;20225;-77
2022/03/03 01:57:51;;;;;;;6.80;5.13;;;15.50;89.60;;;;;;2020324;28;20526;-77
2022/03/03 01:58:50;;;;;;;7.43;5.25;;;15.50;89.60;;;;;;2020984;28;20410;-77
2022/03/03 01:59:48;;;;;;;10.40;5.80;;;15.40;89.40;;;;;;2021143;28;20184;-77
2022/03/03 02:00:50;;;;;;;10.33;6.37;;;15.40;89.40;;;;;;2021104;28;20179;-77
2022/03/03 02:01:49;;;;;;;7.20;4.82;;;15.40;89.50;;;;;;2021265;28;20631;-77
2022/03/03 02:02:48;;;;;;;10.95;6.68;;;15.40;89.20;;;;;;2020937;28;20214;-77
2022/03/03 02:03:46;;;;;;;9.40;5.80;;;15.40;89.50;;;;;;2021140;28;20164;-77
2022/03/03 02:04:45;;;;;;;9.00;5.77;;;15.40;89.70;;;;;;2021167;28;20199;-78
2022/03/03 02:05:44;;;;;;;8.63;5.53;;;15.40;89.60;;;;;;2021159;28;20515;-77
2022/03/03 02:06:42;;;;;;;11.63;6.80;;;15.40;89.90;;;;;;2021195;28;20203;-77
2022/03/03 02:07:41;;;;;;;8.97;5.83;;;15.40;90.10;;;;;;2021057;28;20247;-77
2022/03/03 02:08:40;;;;;;;10.40;5.43;;;15.40;90.20;;;;;;2020860;28;20226;-77
2022/03/03 02:09:40;;;;;;;9.20;6.00;;;15.40;90.40;;;;;;2021004;28;20223;-77
2022/03/03 02:10:38;;;;;;;7.45;4.95;;;15.40;90.40;;;;;;2021095;28;20176;-77
2022/03/03 02:11:37;;;;;;;7.97;5.87;;;15.40;90.40;;;;;;2021146;28;20176;-77
2022/03/03 02:12:36;;;;;;;10.60;5.97;;;15.40;90.50;;;;;;2020989;28;20413;-76
2022/03/03 02:13:36;;;;;;;9.17;6.30;;;15.40;90.50;;;;;;2021001;28;20588;-76
2022/03/03 02:14:45;;;;;;;8.52;5.07;;;15.40;90.50;;;;;;2020421;28;20651;-76
2022/03/03 02:15:53;;;;;;;11.15;5.80;;;15.30;90.30;;;;;;2020526;28;20613;-76
2022/03/03 02:16:52;;;;;;;10.18;6.40;;;15.30;90.50;;;;;;2021202;28;20518;-76
2022/03/03 02:17:50;;;;;;;7.60;4.93;;;15.40;90.60;;;;;;2021110;28;20180;-76
2022/03/03 02:18:49;;;;;;;8.37;5.30;;;15.40;90.60;;;;;;2020999;28;20255;-76
2022/03/03 02:19:48;;;;;;;7.20;5.70;;;15.40;90.70;;;;;;2020685;28;20715;-76
2022/03/03 02:20:47;;;;;;;9.32;6.40;;;15.40;90.50;;;;;;2020755;28;20168;-76
2022/03/03 02:21:51;;;;;;;7.00;5.22;;;15.40;90.60;;;;;;2020964;28;20197;-77
2022/03/03 02:22:50;;;;;;;9.02;5.30;;;15.40;90.60;;;;;;2020727;28;20225;-77
2022/03/03 02:23:49;;;;;;;8.02;5.65;;;15.40;90.40;;;;;;2021007;28;20179;-77
2022/03/03 02:24:47;;;;;;;7.63;5.30;;;15.40;90.60;;;;;;2020889;28;20172;-77
2022/03/03 02:25:46;;;;;;;10.87;6.70;;;15.30;90.70;;;;;;2020828;28;20178;-77
2022/03/03 02:26:48;;;;;;;8.27;5.40;;;15.30;90.80;;;;;;2021044;28;20269;-76
2022/03/03 02:27:48;;;;;;;9.95;6.47;;;15.30;90.80;;;;;;2020885;28;20175;-77
2022/03/03 02:28:47;;;;;;;7.55;6.03;;;15.40;90.80;;;;;;2020894;28;20685;-77
2022/03/03 02:29:46;;;;;;;6.75;5.18;;;15.40;90.70;;;;;;2020358;28;20262;-77
2022/03/03 02:30:44;;;;;;;8.07;5.90;;;15.40;90.80;;;;;;2020363;28;20583;-77
2022/03/03 02:31:44;;;;;;;8.43;5.93;;;15.40;90.80;;;;;;2020770;28;20175;-77
2022/03/03 02:32:44;;;;;;;7.65;5.20;;;15.40;90.80;;;;;;2019978;28;20226;-77
2022/03/03 02:33:43;;;;;;;9.68;5.53;;;15.40;90.90;;;;;;2020294;28;20176;-77
2022/03/03 02:34:47;;;;;;;9.57;5.50;;;15.40;90.80;;;;;;2020828;28;20175;-77
2022/03/03 02:35:46;;;;;;;9.48;5.40;;;15.30;90.90;;;;;;2021042;28;20428;-77
2022/03/03 02:36:44;;;;;;;8.73;5.63;;;15.40;91.00;;;;;;2020832;28;20650;-77
2022/03/03 02:37:44;;;;;;;9.50;4.93;;;15.40;91.00;;;;;;2020889;28;20692;-77
2022/03/03 02:38:44;;;;;;;8.77;5.43;;;15.30;91.00;;;;;;2020901;28;20183;-77
2022/03/03 02:39:44;;;;;;;8.48;5.60;;;15.40;91.10;;;;;;2020840;28;20183;-77
2022/03/03 02:40:42;;;;;;;8.13;5.75;;;15.40;90.90;;;;;;2020930;28;20180;-77
2022/03/03 02:41:41;;;;;;;10.00;6.27;;;15.30;91.00;;;;;;2021093;28;20209;-77
2022/03/03 02:42:39;;;;;;;10.83;6.00;;;15.30;91.10;;;;;;2020368;28;20204;-77
2022/03/03 02:43:38;;;;;;;6.93;5.00;;;15.30;90.80;;;;;;2020847;28;20524;-77
2022/03/03 02:44:37;;;;;;;7.30;5.10;;;15.40;90.90;;;;;;2019984;28;20184;-77
2022/03/03 02:45:35;;;;;;;6.57;5.23;;;15.30;90.90;;;;;;2020033;28;20178;-77
2022/03/03 02:46:34;;;;;;;9.77;5.87;;;15.40;91.10;;;;;;2020201;28;20475;-77
2022/03/03 02:47:38;;;;;;;9.37;6.10;;;15.40;91.10;;;;;;2020882;28;20642;-76
2022/03/03 02:48:37;;;;;;;6.43;4.80;;;15.40;90.80;;;;;;2020984;28;20161;-77
2022/03/03 02:49:36;;;;;;;8.87;5.73;;;15.30;90.90;;;;;;2020720;28;20259;-76
2022/03/03 02:50:34;;;;;;;13.90;5.87;;;15.40;90.90;;;;;;2020669;28;20402;-77
2022/03/03 02:51:33;;;;;;;8.50;5.83;;;15.30;91.00;;;;;;2020777;28;20179;-77
2022/03/03 02:52:31;;;;;;;7.07;5.50;;;15.30;90.80;;;;;;2020602;28;20179;-77
2022/03/03 02:53:30;;;;;;;9.27;6.00;;;15.30;91.00;;;;;;2020687;28;20647;-77
2022/03/03 02:54:28;;;;;;;8.50;5.13;;;15.40;90.90;;;;;;2020748;28;20179;-77
2022/03/03 02:55:27;;;;;;;6.27;5.57;;;15.40;90.80;;;;;;2020523;28;20661;-77
2022/03/03 02:56:26;;;;;;;9.37;5.67;;;15.40;90.90;;;;;;2020593;28;20275;-78
2022/03/03 02:58:42;;;;;;;7.68;5.75;;;15.40;90.90;;;;;;2020252;28;20212;-76
2022/03/03 02:59:41;;;;;;;10.20;5.85;;;15.30;90.80;;;;;;2020082;28;20192;-76
2022/03/03 03:00:43;;;;;;;8.43;5.57;;;15.30;90.80;;;;;;2020278;28;20172;-76
2022/03/03 03:01:41;;;;;;;7.68;5.63;;;15.30;91.00;;;;;;2020594;28;20176;-76
2022/03/03 03:02:40;;;;;;;9.40;5.50;;;15.30;91.00;;;;;;2020662;28;20682;-77
2022/03/03 03:03:39;;;;;;;9.60;5.47;;;15.30;90.90;;;;;;2020591;28;20645;-77
2022/03/03 03:04:37;;;;;;;8.33;5.60;;;15.30;90.90;;;;;;2020617;28;20182;-77
2022/03/03 03:05:36;;;;;;;8.00;5.47;;;15.30;90.90;;;;;;2020772;28;20247;-77
2022/03/03 03:06:35;;;;;;;8.43;5.63;;;15.40;90.90;;;;;;2020617;28;20179;-77
2022/03/03 03:07:33;;;;;;;11.80;5.63;;;15.30;91.00;;;;;;2020567;28;20455;-77
2022/03/03 03:08:33;;;;;;;7.80;5.00;;;15.40;90.90;;;;;;2020492;28;20172;-78
2022/03/03 03:09:31;;;;;;;8.35;5.10;;;15.40;91.00;;;;;;2020688;28;20690;-77
2022/03/03 03:10:30;;;;;;;8.60;5.60;;;15.30;91.00;;;;;;2020567;28;20175;-77
2022/03/03 03:11:29;;;;;;;10.30;4.93;;;15.40;90.70;;;;;;2020731;28;20614;-77
2022/03/03 03:12:27;;;;;;;8.20;5.60;;;15.30;90.90;;;;;;2020463;28;20183;-77
2022/03/03 03:13:26;;;;;;;8.90;5.30;;;15.30;91.10;;;;;;2020064;28;20578;-78
2022/03/03 03:14:24;;;;;;;9.57;5.63;;;15.30;91.40;;;;;;2019979;28;20179;-77
2022/03/03 03:15:23;;;;;;;6.17;4.53;;;15.40;91.30;;;;;;2020507;28;20176;-77
2022/03/03 03:16:21;;;;;;;7.77;4.93;;;15.40;91.30;;;;;;2020645;28;20252;-77
2022/03/03 03:17:20;;;;;;;8.20;5.60;;;15.30;91.30;;;;;;2020084;28;20203;-77
2022/03/03 03:18:21;;;;;;;8.10;5.47;;;15.30;91.20;;;;;;2020110;28;20726;-77
2022/03/03 03:19:20;;;;;;;9.07;5.57;;;15.30;91.10;;;;;;2020544;28;20187;-77
2022/03/03 03:20:19;;;;;;;8.15;5.43;;;15.30;91.20;;;;;;2020378;28;20188;-77
2022/03/03 03:21:18;;;;;;;8.20;5.90;;;15.30;91.30;;;;;;2020656;28;20603;-77
2022/03/03 03:22:17;;;;;;;7.83;5.60;;;15.30;91.50;;;;;;2020492;28;20312;-77
2022/03/03 03:23:18;;;;;;;8.83;5.70;;;15.30;91.40;;;;;;2020334;28;20251;-77
2022/03/03 03:24:17;;;;;;;9.52;6.07;;;15.30;91.70;;;;;;2019999;28;20206;-77
2022/03/03 03:25:15;;;;;;;7.73;5.57;;;15.30;91.90;;;;;;2019975;28;20172;-76
2022/03/03 03:26:14;;;;;;;8.70;5.80;;;15.30;91.70;;;;;;2020505;28;20172;-77
2022/03/03 03:27:12;;;;;;;10.00;6.00;;;15.30;91.70;;;;;;2020461;28;20172;-77
2022/03/03 03:28:13;;;;;;;8.50;5.30;;;15.30;92.00;;;;;;2020329;28;20172;-77
2022/03/03 03:29:13;;;;;;;8.50;6.05;;;15.30;91.80;;;;;;2020366;28;20209;-77
2022/03/03 03:30:13;;;;;;;7.50;5.43;;;15.30;92.20;;;;;;2019775;28;20172;-77
2022/03/03 03:31:12;;;;;;;9.27;6.20;;;15.30;92.50;;;;;;2011845;28;20306;-76
2022/03/03 03:32:10;;;;;;;9.75;5.35;;;15.30;92.30;;;;;;2019422;28;20535;-77
2022/03/03 03:33:11;;;;;;;9.73;5.90;;;15.30;92.40;;;;;;2020265;28;20198;-77
2022/03/03 03:34:10;;;;;;;7.85;5.38;;;15.30;92.30;;;;;;2020402;28;20209;-77
2022/03/03 03:35:10;;;;;;;10.27;5.30;;;15.30;92.30;;;;;;2020425;28;20660;-77
2022/03/03 03:36:08;;;;;;;7.00;4.60;;;15.20;92.40;;;;;;2020438;28;20954;-77
2022/03/03 03:37:07;;;;;;;7.93;5.07;;;15.20;92.30;;;;;;2020492;28;20270;-77
2022/03/03 03:38:05;;;;;;;6.50;4.63;;;15.20;91.90;;;;;;2020362;28;20578;-76
2022/03/03 03:39:04;;;;;;;9.00;5.27;;;15.30;91.90;;;;;;2020373;28;20172;-76
2022/03/03 03:40:05;;;;;;;6.35;5.00;;;15.30;92.00;;;;;;2020400;28;20255;-77
2022/03/03 03:41:04;;;;;;;8.35;5.30;;;15.30;92.00;;;;;;2020425;28;20255;-77
2022/03/03 03:42:03;;;;;;;9.50;4.97;;;15.20;92.00;;;;;;2020486;28;20233;-77
2022/03/03 03:43:02;;;;;;;9.10;5.90;;;15.30;92.00;;;;;;2019969;28;20223;-77
2022/03/03 03:44:01;;;;;;;8.97;4.90;;;15.30;92.00;;;;;;2020010;28;20175;-77
2022/03/03 03:44:59;;;;;;;7.73;5.60;;;15.30;91.70;;;;;;2019527;28;20745;-77
2022/03/03 03:45:58;;;;;;;9.27;5.93;;;15.20;92.00;;;;;;2019249;28;20266;-77
2022/03/03 03:46:56;;;;;;;7.90;5.43;;;15.30;92.20;;;;;;2019981;28;20171;-77
2022/03/03 03:47:55;;;;;;;6.27;4.67;;;15.30;92.30;;;;;;2019993;28;20171;-77
2022/03/03 03:48:53;;;;;;;9.00;5.53;;;15.20;92.20;;;;;;2020137;28;20171;-77
2022/03/03 03:49:52;;;;;;;9.20;6.17;;;15.30;92.60;;;;;;2020178;28;20258;-77
2022/03/03 03:50:51;;;;;;;8.87;5.20;;;15.30;92.60;;;;;;2019294;28;20175;-76
2022/03/03 03:51:51;;;;;;;7.60;5.80;;;15.30;92.80;;;;;;2019285;28;20164;-77
2022/03/03 03:52:50;;;;;;;8.50;5.18;;;15.30;92.80;;;;;;2019322;28;20289;-76
2022/03/03 03:53:48;;;;;;;10.00;6.20;;;15.30;93.30;;;;;;2019417;28;20241;-77
2022/03/03 03:54:47;;;;;;;7.10;5.10;;;15.30;92.80;;;;;;2019989;28;20187;-77
2022/03/03 03:55:46;;;;;;;7.97;5.53;;;15.30;92.80;;;;;;2020119;28;20631;-77
2022/03/03 03:56:44;;;;;;;7.80;5.40;;;15.30;93.00;;;;;;2019897;28;20178;-77
2022/03/03 03:57:43;;;;;;;6.83;4.77;;;15.20;93.00;;;;;;2020027;28;20179;-76
2022/03/03 03:58:41;;;;;;;9.00;4.87;;;15.20;93.20;;;;;;2020822;28;20262;-76
2022/03/03 03:59:40;;;;;;;12.53;5.80;;;15.20;92.50;;;;;;2021578;28;20181;-77
2022/03/03 04:00:39;;;;;;;7.43;5.37;;;15.20;92.60;;;;;;2021498;28;20672;-76
2022/03/03 04:01:37;;;;;;;6.40;5.23;;;15.20;93.10;;;;;;2021761;28;20252;-77
2022/03/03 04:02:36;;;;;;;7.40;4.83;;;15.30;92.90;;;;;;2021381;28;20199;-77
2022/03/03 04:03:34;;;;;;;6.60;4.40;;;15.30;93.00;;;;;;2021390;28;20227;-76
2022/03/03 04:04:33;;;;;;;7.50;5.40;;;15.30;92.80;;;;;;2021419;28;20195;-76
2022/03/03 04:05:32;;;;;;;9.33;5.20;;;15.30;92.10;;;;;;2021359;28;20176;-77
2022/03/03 04:06:32;;;;;;;9.47;5.20;;;15.30;91.50;;;;;;2021430;28;20199;-77
2022/03/03 04:07:31;;;;;;;8.07;5.00;;;15.30;91.70;;;;;;2021345;28;20168;-77
2022/03/03 04:08:30;;;;;;;7.00;4.17;;;15.20;91.40;;;;;;2021315;28;20190;-77
2022/03/03 04:09:28;;;;;;;7.47;5.33;;;15.20;91.40;;;;;;2020747;28;20410;-77
2022/03/03 04:10:28;;;;;;;7.83;5.43;;;15.20;91.40;;;;;;2020948;28;20168;-77
2022/03/03 04:11:27;;;;;;;9.05;5.32;;;15.20;90.80;;;;;;2020480;28;20255;-76
2022/03/03 04:12:25;;;;;;;6.80;5.33;;;15.20;90.80;;;;;;2020703;28;20180;-76
2022/03/03 04:13:24;;;;;;;7.70;5.33;;;15.20;90.80;;;;;;2021329;28;20164;-76
2022/03/03 04:14:22;;;;;;;7.53;4.73;;;15.20;90.80;;;;;;2021410;28;20172;-77
2022/03/03 04:15:21;;;;;;;7.83;4.90;;;15.20;90.60;;;;;;2021283;28;20175;-77
2022/03/03 04:16:20;;;;;;;6.82;4.78;;;15.20;90.50;;;;;;2021325;28;20179;-77
2022/03/03 04:17:18;;;;;;;8.10;5.50;;;15.20;90.20;;;;;;2021371;28;20226;-76
2022/03/03 04:18:18;;;;;;;7.03;4.90;;;15.20;90.20;;;;;;2021360;28;20631;-77
2022/03/03 04:19:17;;;;;;;8.90;4.72;;;15.30;90.20;;;;;;2021298;28;20172;-76
2022/03/03 04:20:18;;;;;;;5.17;4.17;;;15.20;90.10;;;;;;2021386;28;20171;-76
2022/03/03 04:21:16;;;;;;;9.00;5.35;;;15.30;90.20;;;;;;2020575;28;20172;-77
2022/03/03 04:22:15;;;;;;;7.70;5.37;;;15.20;90.10;;;;;;2020752;28;20184;-76
2022/03/03 04:23:17;;;;;;;16.20;5.60;;;15.20;90.10;;;;;;2021266;28;20192;-77
2022/03/03 04:24:15;;;;;;;5.57;4.57;;;15.30;90.20;;;;;;2021272;28;20924;-77
2022/03/03 04:25:14;;;;;;;7.07;5.10;;;15.20;90.30;;;;;;2021402;28;20174;-76
2022/03/03 04:26:13;;;;;;;6.90;4.60;;;15.20;90.20;;;;;;2021312;28;20164;-77
2022/03/03 04:27:11;;;;;;;5.30;4.37;;;15.20;90.20;;;;;;2021354;28;20214;-77
2022/03/03 04:28:10;;;;;;;8.60;5.33;;;15.20;90.20;;;;;;2021278;28;20407;-77
2022/03/03 04:29:09;;;;;;;7.97;5.50;;;15.20;90.00;;;;;;2021280;28;20206;-76
2022/03/03 04:30:09;;;;;;;6.07;4.40;;;15.20;89.10;;;;;;2021222;28;20226;-77
2022/03/03 04:31:08;;;;;;;6.15;4.35;;;15.20;88.90;;;;;;2021316;28;20531;-76
2022/03/03 04:32:07;;;;;;;7.67;5.43;;;15.10;88.50;;;;;;2021212;28;20171;-77
2022/03/03 04:33:05;;;;;;;6.77;4.37;;;15.10;88.40;;;;;;2021017;28;20714;-77
2022/03/03 04:34:04;;;;;;;7.20;4.40;;;15.10;88.20;;;;;;2020834;28;20206;-77
2022/03/03 04:35:05;;;;;;;6.20;4.07;;;15.20;88.40;;;;;;2014609;28;20208;-77
2022/03/03 04:36:05;;;;;;;5.82;4.63;;;15.20;88.40;;;;;;2025811;28;20194;-76
2022/03/03 04:37:03;;;;;;;6.80;5.03;;;15.20;88.30;;;;;;2025976;28;20175;-76
2022/03/03 04:38:02;;;;;;;9.20;5.80;;;15.10;88.20;;;;;;2026551;28;20176;-77
2022/03/03 04:39:01;;;;;;;7.70;3.90;;;15.20;88.30;;;;;;2027223;28;20163;-76
2022/03/03 04:40:00;;;;;;;9.17;5.23;;;15.20;88.60;;;;;;2026807;28;20180;-76
2022/03/03 04:40:58;;;;;;;8.03;4.60;;;15.10;88.30;;;;;;2026895;28;20428;-77
2022/03/03 04:41:57;;;;;;;6.53;4.43;;;15.10;88.50;;;;;;2027135;28;20210;-77
2022/03/03 04:42:57;;;;;;;6.97;4.80;;;15.10;89.00;;;;;;1990206;28;1045982;-76
2022/03/03 04:43:55;;;;;;;5.57;4.22;;;15.10;89.20;;;;;;2026166;28;20401;-76
2022/03/03 04:44:54;;;;;;;7.73;5.40;;;15.10;89.30;;;;;;2021454;28;20222;-77
2022/03/03 04:45:52;;;;;;;9.30;5.63;;;15.20;90.00;;;;;;2021589;28;20172;-77
2022/03/03 04:46:51;;;;;;;6.53;5.00;;;15.20;90.00;;;;;;2021631;28;20172;-76
2022/03/03 04:47:50;;;;;;;7.50;5.03;;;15.10;90.10;;;;;;2021782;28;20577;-76
2022/03/03 04:48:48;;;;;;;6.53;4.50;;;15.20;89.60;;;;;;2021057;28;20191;-77
2022/03/03 04:49:47;;;;;;;6.80;5.07;;;15.20;90.30;;;;;;2013058;28;20411;-76
2022/03/03 04:50:45;;;;;;;6.07;4.73;;;15.10;90.30;;;;;;2020647;28;20175;-76
2022/03/03 04:51:44;;;;;;;6.33;5.53;;;15.20;90.60;;;;;;2021598;28;20677;-77
2022/03/03 04:52:43;;;;;;;7.00;4.80;;;15.10;90.40;;;;;;2021669;28;20219;-76
2022/03/03 04:53:42;;;;;;;6.37;4.67;;;15.10;90.40;;;;;;2021538;28;20171;-76
2022/03/03 04:54:40;;;;;;;7.50;4.97;;;15.10;90.20;;;;;;2021499;28;20204;-77
2022/03/03 04:55:40;;;;;;;7.67;5.37;;;15.10;90.00;;;;;;2021633;28;20176;-77
2022/03/03 04:56:39;;;;;;;7.28;4.80;;;15.10;90.00;;;;;;2020959;28;20179;-76
2022/03/03 04:57:38;;;;;;;7.25;5.40;;;15.10;89.80;;;;;;2021098;28;20167;-77
2022/03/03 04:58:36;;;;;;;6.20;4.20;;;15.10;90.30;;;;;;2020511;28;20168;-76
2022/03/03 04:59:35;;;;;;;6.50;4.67;;;15.10;89.90;;;;;;2021120;28;20292;-76
2022/03/03 05:00:33;;;;;;;6.67;4.00;;;15.10;90.10;;;;;;2021476;28;20321;-77
2022/03/03 05:01:32;;;;;;;6.10;4.00;;;15.10;90.00;;;;;;2021475;28;20175;-76
2022/03/03 05:02:31;;;;;;;5.13;3.80;;;15.10;89.80;;;;;;2021413;28;20200;-76
2022/03/03 05:03:29;;;;;;;6.43;4.20;;;15.10;89.90;;;;;;2021471;28;20546;-76
2022/03/03 05:04:28;;;;;;;5.60;4.30;;;15.10;90.10;;;;;;2021630;28;20250;-76
2022/03/03 05:05:26;;;;;;;9.30;5.20;;;15.10;89.90;;;;;;2020669;28;20234;-75
2022/03/03 05:06:25;;;;;;;8.63;5.07;;;15.10;90.20;;;;;;2020981;28;20250;-77
2022/03/03 05:07:23;;;;;;;9.20;4.73;;;15.20;90.00;;;;;;2021528;28;20164;-76
2022/03/03 05:08:22;;;;;;;8.73;4.67;;;15.10;89.70;;;;;;2021492;28;20221;-76